To NAV CANADA Home Page Login to a new session Search on AWWS site Feedback and Comments Disclaimer Vers la page française équivalente Tips FAQ What's new on the site To the Forecasts and Observations / NOTAM section To "File a Flight Plan" website Publications and other links Update of the User's profile FIC Telephone Numbers My Weather Data Folder Route Weather Data Regional Weather Data Local Weather Data To the Forecasts and Observations / NOTAM section
Request Generated 01/17/2017 at 04:43:32 UTC . Weather information available at that time is displayed.

METAR/TAF

HAMILTON/ON    

METAR CYHM 170400Z 00000KT 15SM -FZRA FEW042 OVC053 M00/M02 A3021 RMK
SC2SC6 SLP241=
METAR CYHM 170300Z 00000KT 15SM -FZRA SCT034 OVC070 M00/M03 A3022 RMK
SC3AC5 SLP245=
METAR CYHM 170200Z 19003KT 15SM -FZRA OVC041 00/M03 A3024 RMK SC8
SLP252=

TAF AMD CYHM 170116Z 1701/1724 VRB03KT P6SM -RA OVC030 TEMPO
1701/1704 5SM -FZRA BR OVC020
FM170400 VRB03KT 6SM -FZRA BR OVC030 TEMPO 1704/1709 5SM -RA BR
OVC020
FM170900 05010KT 5SM -FZRA BR OVC030
FM171100 06012KT 3SM -FZRA BR OVC015
FM171300 06012KT 2SM -RA BR OVC008
FM171800 06010KT 1/2SM -RA FG OVC004
FM172100 03007KT 1/2SM -DZ FG OVC002
BECMG 1722/1724 VRB03KT
RMK NXT FCST BY 170600Z=
Your time UTC time
Weather data provided by Environment Canada and NAV CANADA